Peridot — 3EYN6 — position and weather

sailwx.info

Track history (hours):
 
Tides and Currents Weather Stations Pressure Air Temp Water Temp Dewpoint Dewpoint Depression Visibility Wind Speed Wind Dir Waves Ship Positions

Peridot

Last reported at 2017-Sep-15 00:39 UTC. Time now 2017-Sep-19 17:20 UTC.
Position S 06°34' E 112°46'.

Length 189 m; draft 6.8 m.

Type: Cargo ship. MMSI: 373140000.

Date/timePositionNaut miles runAvg speedWind from/ knotsBaromVisibWave heightAir tempDewpointWater temp
2017-Sep-15 00:39S 06°34' E 112°46'213.0
2017-Sep-15 00:28S 06°36' E 112°46'713.2
2017-Sep-14 23:58S 06°43' E 112°45'613.1
2017-Sep-14 23:29S 06°49' E 112°45'1211.0
2017-Sep-14 22:25S 06°60' E 112°41'511.5
2017-Sep-14 22:00S 07°05' E 112°40'610.6
2017-Sep-14 21:28S 07°10' E 112°41'0 0.4
2017-Sep-14 20:25S 07°11' E 112°41'0 0.0
2017-Sep-14 19:19S 07°11' E 112°41'0 0.0
2017-Sep-12 23:22S 07°11' E 112°41'0 0.0
2017-Sep-12 15:09S 07°11' E 112°41'0 0.2
2017-Sep-12 14:59S 07°11' E 112°41'1 2.3
2017-Sep-12 14:30S 07°09' E 112°40'4 8.3
2017-Sep-12 13:59S 07°05' E 112°39'510.7
2017-Sep-12 13:30S 07°00' E 112°41'510.7
2017-Sep-12 13:01S 06°56' E 112°43'5 8.5
2017-Sep-12 12:29S 06°52' E 112°45'1 1.3
2017-Sep-12 12:01S 06°51' E 112°46'0 0.2
2017-Sep-12 11:29S 06°51' E 112°46'0 0.0
2017-Sep-12 10:56S 06°51' E 112°46'0 0.0
2017-Sep-12 07:02S 06°51' E 112°46'0 0.1
2017-Sep-12 06:32S 06°51' E 112°46'0 0.0
2017-Sep-12 06:23S 06°51' E 112°46'0 0.1
2017-Sep-12 05:35S 06°51' E 112°46'0 0.1
2017-Sep-12 04:29S 06°51' E 112°46'1 1.1
2017-Sep-12 04:00S 06°51' E 112°46'3 7.0
2017-Sep-12 03:30S 06°47' E 112°45'  
Track history (hours):
 
Tides and Currents Weather Stations Pressure Air Temp Water Temp Dewpoint Dewpoint Depression Visibility Wind Speed Wind Dir Waves Ship Positions

Peridot

Last reported at 2017-Sep-15 00:39 UTC. Time now 2017-Sep-19 17:20 UTC.
Position S 06°34' E 112°46'.

Length 189 m; draft 6.8 m.

Type: Cargo ship. MMSI: 373140000.

Date/timePositionNaut miles runAvg speedWind from/ knotsBaromVisibWave heightAir tempDewpointWater temp
2017-Sep-15 00:39S 06°34' E 112°46'213.0
2017-Sep-15 00:28S 06°36' E 112°46'713.2
2017-Sep-14 23:58S 06°43' E 112°45'613.1
2017-Sep-14 23:29S 06°49' E 112°45'1211.0
2017-Sep-14 22:25S 06°60' E 112°41'511.5
2017-Sep-14 22:00S 07°05' E 112°40'610.6
2017-Sep-14 21:28S 07°10' E 112°41'0 0.4
2017-Sep-14 20:25S 07°11' E 112°41'0 0.0
2017-Sep-14 19:19S 07°11' E 112°41'0 0.0
2017-Sep-12 23:22S 07°11' E 112°41'0 0.0
2017-Sep-12 15:09S 07°11' E 112°41'0 0.2
2017-Sep-12 14:59S 07°11' E 112°41'1 2.3
2017-Sep-12 14:30S 07°09' E 112°40'4 8.3
2017-Sep-12 13:59S 07°05' E 112°39'510.7
2017-Sep-12 13:30S 07°00' E 112°41'510.7
2017-Sep-12 13:01S 06°56' E 112°43'5 8.5
2017-Sep-12 12:29S 06°52' E 112°45'1 1.3
2017-Sep-12 12:01S 06°51' E 112°46'0 0.2
2017-Sep-12 11:29S 06°51' E 112°46'0 0.0
2017-Sep-12 10:56S 06°51' E 112°46'0 0.0
2017-Sep-12 07:02S 06°51' E 112°46'0 0.1
2017-Sep-12 06:32S 06°51' E 112°46'0 0.0
2017-Sep-12 06:23S 06°51' E 112°46'0 0.1
2017-Sep-12 05:35S 06°51' E 112°46'0 0.1
2017-Sep-12 04:29S 06°51' E 112°46'1 1.1
2017-Sep-12 04:00S 06°51' E 112°46'3 7.0
2017-Sep-12 03:30S 06°47' E 112°45'  

Dump ship's entire track history